createdAt,value
2022-09-06T00:01:26.055Z,17.93
2022-09-06T00:04:31.554Z,17.87
2022-09-06T00:07:37.345Z,17.71
2022-09-06T00:10:40.092Z,17.59
2022-09-06T00:13:42.125Z,17.53
2022-09-06T00:16:44.360Z,17.48
2022-09-06T00:19:47.259Z,17.45
2022-09-06T00:22:49.304Z,17.34
2022-09-06T00:25:51.824Z,17.31
2022-09-06T00:28:55.223Z,17.27
2022-09-06T00:32:01.339Z,17.20
2022-09-06T00:35:04.103Z,17.13
2022-09-06T00:38:07.011Z,17.20
2022-09-06T00:41:11.598Z,17.22
2022-09-06T00:44:17.329Z,17.19
2022-09-06T00:47:21.478Z,17.22
2022-09-06T00:50:23.665Z,17.25
2022-09-06T00:53:26.215Z,17.25
2022-09-06T00:56:30.122Z,17.32
2022-09-06T00:59:34.786Z,17.28
2022-09-06T01:02:38.031Z,17.32
2022-09-06T01:05:42.462Z,17.40
2022-09-06T01:08:58.438Z,17.47
2022-09-06T01:12:13.737Z,17.51
2022-09-06T01:15:22.901Z,17.56
2022-09-06T01:18:34.990Z,17.58
2022-09-06T01:21:37.362Z,17.60
2022-09-06T01:24:51.417Z,17.66
2022-09-06T01:27:57.390Z,17.60
2022-09-06T01:31:09.117Z,17.62
2022-09-06T01:34:18.219Z,17.68
2022-09-06T01:37:23.237Z,17.73
2022-09-06T01:40:26.545Z,17.77
2022-09-06T01:43:36.624Z,17.78
2022-09-06T01:46:59.745Z,17.77
2022-09-06T01:50:01.676Z,17.77
2022-09-06T01:53:12.405Z,17.74
2022-09-06T01:56:22.414Z,17.68
2022-09-06T01:59:42.437Z,17.69
2022-09-06T02:03:03.195Z,17.65
2022-09-06T02:06:22.005Z,17.62
2022-09-06T02:09:26.190Z,17.54
2022-09-06T02:12:30.170Z,17.53
2022-09-06T02:15:39.600Z,17.43
2022-09-06T02:18:49.338Z,17.37
2022-09-06T02:21:54.439Z,17.28
2022-09-06T02:25:01.172Z,17.24
2022-09-06T02:28:07.766Z,17.20
2022-09-06T02:31:14.239Z,17.13
2022-09-06T02:34:18.424Z,17.25
2022-09-06T02:37:21.344Z,17.07
2022-09-06T02:40:24.762Z,16.99
2022-09-06T02:43:28.026Z,16.88
2022-09-06T02:46:33.442Z,16.78
2022-09-06T02:49:35.683Z,16.78
2022-09-06T02:52:38.948Z,16.61
2022-09-06T02:55:41.365Z,16.55
2022-09-06T02:58:45.734Z,16.50
2022-09-06T03:01:48.457Z,16.49
2022-09-06T03:04:50.702Z,16.45
2022-09-06T03:07:53.303Z,16.38
2022-09-06T03:10:59.647Z,16.27
2022-09-06T03:14:02.416Z,16.19
2022-09-06T03:17:06.199Z,16.11
2022-09-06T03:20:09.802Z,16.08
2022-09-06T03:23:12.586Z,16.04
2022-09-06T03:26:16.137Z,16.03
2022-09-06T03:29:18.643Z,16.06
2022-09-06T03:32:25.881Z,16.02
2022-09-06T03:35:29.380Z,16.02
2022-09-06T03:38:31.781Z,15.99
2022-09-06T03:41:34.781Z,15.95
2022-09-06T03:44:37.798Z,15.95
2022-09-06T03:47:40.547Z,15.85
2022-09-06T03:50:55.054Z,15.87
2022-09-06T03:53:57.892Z,15.84
2022-09-06T03:57:00.114Z,15.84
2022-09-06T04:00:06.715Z,15.87
2022-09-06T04:03:09.613Z,15.90
2022-09-06T04:06:14.322Z,15.91
2022-09-06T04:09:17.680Z,15.94
2022-09-06T04:12:24.581Z,15.99
2022-09-06T04:15:28.484Z,16.10
2022-09-06T04:18:30.861Z,16.11
2022-09-06T04:21:35.528Z,16.24
2022-09-06T04:24:39.295Z,16.19
2022-09-06T04:27:41.909Z,16.20
2022-09-06T04:30:45.586Z,16.19
2022-09-06T04:33:48.813Z,16.27
2022-09-06T04:36:50.961Z,16.28
2022-09-06T04:39:53.527Z,16.29
2022-09-06T04:42:58.308Z,16.31
2022-09-06T04:46:08.603Z,16.33
2022-09-06T04:49:12.483Z,16.39
2022-09-06T04:52:15.438Z,16.40
2022-09-06T04:55:18.004Z,16.41
2022-09-06T04:58:20.813Z,16.47
2022-09-06T05:01:23.385Z,16.43
2022-09-06T05:04:29.025Z,16.45
2022-09-06T05:07:32.120Z,16.48
2022-09-06T05:10:36.044Z,16.38
2022-09-06T05:13:38.539Z,16.31
2022-09-06T05:16:42.986Z,16.33
2022-09-06T05:19:50.139Z,16.32
2022-09-06T05:22:54.507Z,16.34
2022-09-06T05:25:56.735Z,16.34
2022-09-06T05:29:02.935Z,16.40
2022-09-06T05:32:05.248Z,16.36
2022-09-06T05:35:10.980Z,16.38
2022-09-06T05:38:16.790Z,16.36
2022-09-06T05:41:19.991Z,16.42
2022-09-06T05:44:23.107Z,16.43
2022-09-06T05:47:27.177Z,16.42
2022-09-06T05:50:29.510Z,16.42
2022-09-06T05:53:35.547Z,16.57
2022-09-06T05:56:38.046Z,16.83
2022-09-06T05:59:41.025Z,17.13
2022-09-06T06:02:43.426Z,17.27
2022-09-06T06:05:49.512Z,17.40
2022-09-06T06:08:53.081Z,17.53
2022-09-06T06:11:55.749Z,17.89
2022-09-06T06:14:58.058Z,18.07
2022-09-06T06:18:05.263Z,18.34
2022-09-06T06:21:28.191Z,18.45
2022-09-06T06:24:31.973Z,18.85
2022-09-06T06:27:37.321Z,20.36
2022-09-06T06:30:39.799Z,20.31
2022-09-06T06:33:46.773Z,20.42
2022-09-06T06:36:58.213Z,21.57
2022-09-06T06:40:00.599Z,23.36
2022-09-06T06:43:03.486Z,25.16
2022-09-06T06:46:08.238Z,28.15
2022-09-06T06:49:11.266Z,29.49
2022-09-06T06:52:16.205Z,31.43
2022-09-06T06:55:23.646Z,30.35
2022-09-06T06:58:27.015Z,31.22
2022-09-06T07:01:30.618Z,31.75
2022-09-06T07:04:34.414Z,32.24
2022-09-06T07:07:39.436Z,33.15
2022-09-06T07:10:44.362Z,33.95
2022-09-06T07:13:47.246Z,33.38
2022-09-06T07:16:52.741Z,32.70
2022-09-06T07:20:15.258Z,31.53
2022-09-06T07:30:07.286Z,32.31
2022-09-06T07:33:13.680Z,33.47
2022-09-06T07:36:16.378Z,34.13
2022-09-06T07:39:22.463Z,29.90
2022-09-06T07:42:25.568Z,26.41
2022-09-06T07:45:28.820Z,23.94
2022-09-06T07:48:35.162Z,22.85
2022-09-06T07:51:40.053Z,22.42
2022-09-06T07:54:43.787Z,22.82
2022-09-06T07:57:47.066Z,22.43
2022-09-06T08:00:50.355Z,22.20
2022-09-06T08:03:52.859Z,22.34
2022-09-06T08:10:19.712Z,22.48
2022-09-06T08:13:23.189Z,22.64
2022-09-06T08:16:28.551Z,22.64
2022-09-06T08:19:36.445Z,22.73
2022-09-06T08:22:39.409Z,22.69
2022-09-06T08:25:43.711Z,23.01
2022-09-06T08:28:46.455Z,23.20
2022-09-06T08:31:49.582Z,23.19
2022-09-06T08:34:57.568Z,23.28
2022-09-06T08:37:59.773Z,22.73
2022-09-06T08:41:08.860Z,23.27
2022-09-06T08:47:39.506Z,23.88
2022-09-06T08:50:47.797Z,24.04
2022-09-06T08:53:53.325Z,24.21
2022-09-06T08:57:01.630Z,24.40
2022-09-06T09:00:11.066Z,24.27
2022-09-06T09:03:25.857Z,24.52
2022-09-06T09:06:28.917Z,24.12
2022-09-06T09:09:34.513Z,24.26
2022-09-06T09:12:39.634Z,23.83
2022-09-06T09:15:43.007Z,23.61
2022-09-06T09:18:49.118Z,23.88
2022-09-06T09:21:52.010Z,24.04
2022-09-06T09:24:59.678Z,24.26
2022-09-06T09:28:04.733Z,24.33
2022-09-06T09:31:08.082Z,24.24
2022-09-06T09:34:31.196Z,24.12
2022-09-06T09:37:51.260Z,24.23
2022-09-06T09:41:07.182Z,24.13
2022-09-06T09:44:14.495Z,24.35
2022-09-06T09:47:29.650Z,24.56
2022-09-06T09:50:33.973Z,24.84
2022-09-06T09:53:49.686Z,24.76
2022-09-06T09:56:55.453Z,25.04
2022-09-06T10:00:06.658Z,24.97
2022-09-06T10:03:22.778Z,24.94
2022-09-06T10:10:09.562Z,25.51
2022-09-06T10:13:20.744Z,25.25
2022-09-06T10:16:43.701Z,25.23
2022-09-06T10:19:48.259Z,25.31
2022-09-06T10:23:17.611Z,25.35
2022-09-06T10:26:38.546Z,24.95
2022-09-06T10:29:49.433Z,24.49
2022-09-06T10:33:08.889Z,24.81
2022-09-06T10:36:15.569Z,25.20
2022-09-06T10:39:22.141Z,25.26
2022-09-06T10:42:46.337Z,25.60
2022-09-06T10:45:57.430Z,25.86
2022-09-06T10:49:19.963Z,25.80
2022-09-06T10:52:27.561Z,25.99
2022-09-06T10:55:32.822Z,26.24
2022-09-06T11:02:19.647Z,26.49
2022-09-06T11:05:45.666Z,26.42
2022-09-06T12:55:36.036Z,28.60
2022-09-06T12:58:45.704Z,28.77
2022-09-06T13:23:24.337Z,28.14
2022-09-06T13:26:40.337Z,28.25
2022-09-06T13:29:55.526Z,28.00
2022-09-06T13:32:58.519Z,27.83
2022-09-06T13:36:12.672Z,27.55
2022-09-06T13:39:29.542Z,27.29
2022-09-06T13:42:37.142Z,27.08
2022-09-06T13:45:40.245Z,26.80
2022-09-06T13:48:44.779Z,26.59
2022-09-06T13:51:51.277Z,26.47
2022-09-06T13:54:54.377Z,26.45
2022-09-06T13:57:59.253Z,26.23
2022-09-06T14:01:03.803Z,26.21
2022-09-06T14:04:08.070Z,26.18
2022-09-06T14:07:14.048Z,25.97
2022-09-06T14:10:16.808Z,25.94
2022-09-06T14:13:19.810Z,25.92
2022-09-06T14:16:24.534Z,25.99
2022-09-06T14:19:26.824Z,25.96
2022-09-06T14:22:29.399Z,25.83
2022-09-06T14:25:34.635Z,25.78
2022-09-06T14:28:38.328Z,25.63
2022-09-06T14:31:41.613Z,25.61
2022-09-06T14:34:51.311Z,25.46
2022-09-06T14:37:54.605Z,25.40
2022-09-06T14:41:02.742Z,25.30
2022-09-06T14:44:07.520Z,25.30
2022-09-06T14:47:10.263Z,25.24
2022-09-06T14:50:14.154Z,25.23
2022-09-06T14:53:38.869Z,25.17
2022-09-06T14:56:47.968Z,25.11
2022-09-06T14:59:53.444Z,25.09
2022-09-06T15:02:57.326Z,24.99
2022-09-06T15:05:59.499Z,24.88
2022-09-06T15:09:02.428Z,24.84
2022-09-06T15:12:04.763Z,24.80
2022-09-06T15:15:08.258Z,24.71
2022-09-06T15:18:14.695Z,24.42
2022-09-06T15:21:19.613Z,24.08
2022-09-06T15:24:22.244Z,23.77
2022-09-06T15:27:24.914Z,23.44
2022-09-06T15:30:27.956Z,23.21
2022-09-06T15:33:31.659Z,23.17
2022-09-06T15:36:33.938Z,23.16
2022-09-06T15:39:36.509Z,23.17
2022-09-06T15:42:41.964Z,23.13
2022-09-06T15:45:48.620Z,23.20
2022-09-06T15:48:54.395Z,23.24
2022-09-06T15:51:58.708Z,23.18
2022-09-06T15:55:19.307Z,23.11
2022-09-06T15:58:22.533Z,23.05
2022-09-06T16:01:26.110Z,23.00
2022-09-06T16:04:29.309Z,22.96
2022-09-06T16:07:32.444Z,22.90
2022-09-06T16:10:39.089Z,22.90
2022-09-06T16:13:42.635Z,22.80
2022-09-06T16:16:44.938Z,22.71
2022-09-06T16:19:47.420Z,22.60
2022-09-06T16:22:51.227Z,22.70
2022-09-06T16:25:55.252Z,22.70
2022-09-06T16:28:58.038Z,22.70
2022-09-06T16:32:00.837Z,22.57
2022-09-06T16:35:07.007Z,22.56
2022-09-06T16:38:09.676Z,22.51
2022-09-06T16:41:29.502Z,22.47
2022-09-06T16:44:32.486Z,22.43
2022-09-06T16:47:35.669Z,22.16
2022-09-06T16:50:38.739Z,21.85
2022-09-06T16:53:42.029Z,21.69
2022-09-06T16:56:46.381Z,21.58
2022-09-06T16:59:49.414Z,21.61
2022-09-06T17:02:52.713Z,21.64
2022-09-06T17:05:56.077Z,21.72
2022-09-06T17:08:59.701Z,21.67
2022-09-06T17:12:02.976Z,21.69
2022-09-06T17:15:05.885Z,21.68
2022-09-06T17:18:09.436Z,21.56
2022-09-06T17:21:12.225Z,21.53
2022-09-06T17:24:14.944Z,21.45
2022-09-06T17:27:17.519Z,21.39
2022-09-06T17:30:22.134Z,21.25
2022-09-06T17:33:26.024Z,21.29
2022-09-06T17:36:30.602Z,21.25
2022-09-06T17:39:38.954Z,21.17
2022-09-06T17:42:45.278Z,21.15
2022-09-06T17:45:47.975Z,21.20
2022-09-06T17:48:50.143Z,21.14
2022-09-06T17:51:53.445Z,20.98
2022-09-06T17:54:59.314Z,20.90
2022-09-06T17:58:01.625Z,20.82
2022-09-06T18:01:05.122Z,20.77
2022-09-06T18:04:08.173Z,20.71
2022-09-06T18:07:10.336Z,20.67
2022-09-06T18:10:16.505Z,20.60
2022-09-06T18:13:19.645Z,20.58
2022-09-06T18:16:22.938Z,20.51
2022-09-06T18:19:26.390Z,20.43
2022-09-06T18:22:29.907Z,20.33
2022-09-06T18:25:32.786Z,20.27
2022-09-06T18:28:38.796Z,20.19
2022-09-06T18:31:43.644Z,20.10
2022-09-06T18:34:46.598Z,20.01
2022-09-06T18:37:49.462Z,20.00
2022-09-06T18:40:53.684Z,20.06
2022-09-06T18:43:56.759Z,20.11
2022-09-06T18:47:01.611Z,20.16
2022-09-06T18:50:05.677Z,20.23
2022-09-06T18:53:08.211Z,20.33
2022-09-06T18:56:18.884Z,20.43
2022-09-06T18:59:25.457Z,20.43
2022-09-06T19:02:29.089Z,20.40
2022-09-06T19:05:31.896Z,20.37
2022-09-06T19:08:34.754Z,20.28
2022-09-06T19:11:37.851Z,20.22
2022-09-06T19:14:40.595Z,20.14
2022-09-06T19:17:43.606Z,20.07
2022-09-06T19:20:58.740Z,19.97
2022-09-06T19:24:03.259Z,19.89
2022-09-06T19:27:06.183Z,19.81
2022-09-06T19:30:11.148Z,19.72
2022-09-06T19:33:15.706Z,19.65
2022-09-06T19:36:18.485Z,19.65
2022-09-06T19:39:22.120Z,19.56
2022-09-06T19:42:24.611Z,19.42
2022-09-06T19:45:31.146Z,19.37
2022-09-06T19:48:44.614Z,19.30
2022-09-06T19:51:59.318Z,19.23
2022-09-06T19:55:02.848Z,19.14
2022-09-06T19:58:08.689Z,19.07
2022-09-06T20:01:12.468Z,19.04
2022-09-06T20:04:15.403Z,19.00
2022-09-06T20:07:20.214Z,18.95
2022-09-06T20:10:23.618Z,18.90
2022-09-06T20:13:27.942Z,18.84
2022-09-06T20:16:35.311Z,18.84
2022-09-06T20:19:41.817Z,18.82
2022-09-06T20:22:47.497Z,18.84
2022-09-06T20:25:58.422Z,18.78
2022-09-06T20:29:02.300Z,18.72
2022-09-06T20:32:06.029Z,18.66
2022-09-06T20:35:13.576Z,18.63
2022-09-06T20:38:16.951Z,18.64
2022-09-06T20:41:20.829Z,18.66
2022-09-06T20:44:23.372Z,18.69
2022-09-06T20:47:26.753Z,18.73
2022-09-06T20:50:29.231Z,18.73
2022-09-06T20:53:35.018Z,18.71
2022-09-06T20:56:42.194Z,18.70
2022-09-06T20:59:45.026Z,18.70
2022-09-06T21:02:47.108Z,18.67
2022-09-06T21:05:49.699Z,18.69
2022-09-06T21:08:53.376Z,18.70
2022-09-06T21:11:58.062Z,18.69
2022-09-06T21:15:01.747Z,18.70
2022-09-06T21:18:09.162Z,18.74
2022-09-06T21:21:12.806Z,18.80
2022-09-06T21:24:16.720Z,18.86
2022-09-06T21:27:20.306Z,18.89
2022-09-06T21:30:23.042Z,18.89
2022-09-06T21:33:27.021Z,18.88
2022-09-06T21:36:42.161Z,18.89
2022-09-06T21:39:44.668Z,18.89
2022-09-06T21:42:48.341Z,18.91
2022-09-06T21:45:51.141Z,18.86
2022-09-06T21:48:54.361Z,18.84
2022-09-06T21:51:57.988Z,18.79
2022-09-06T21:55:05.535Z,18.84
2022-09-06T21:58:09.257Z,18.83
2022-09-06T22:01:12.766Z,18.77
2022-09-06T22:04:16.080Z,18.72
2022-09-06T22:07:21.402Z,18.65
2022-09-06T22:10:25.276Z,18.62
2022-09-06T22:13:28.500Z,18.60
2022-09-06T22:16:33.226Z,18.60
2022-09-06T22:19:36.169Z,18.59
2022-09-06T22:22:38.908Z,18.53
2022-09-06T22:25:43.660Z,18.47
2022-09-06T22:28:46.768Z,18.45
2022-09-06T22:31:50.169Z,18.48
2022-09-06T22:35:01.104Z,18.44
2022-09-06T22:38:05.540Z,18.42
2022-09-06T22:41:10.284Z,18.34
2022-09-06T22:44:14.507Z,18.35
2022-09-06T22:47:16.602Z,18.24
2022-09-06T22:50:19.155Z,18.22
2022-09-06T22:53:21.760Z,18.23
2022-09-06T22:56:25.931Z,18.10
2022-09-06T22:59:28.625Z,18.12
2022-09-06T23:02:31.407Z,18.13
2022-09-06T23:05:34.321Z,18.09
2022-09-06T23:08:38.031Z,17.97
2022-09-06T23:11:41.019Z,17.98
2022-09-06T23:14:45.229Z,17.85
2022-09-06T23:17:47.600Z,17.84
2022-09-06T23:20:50.805Z,17.82
2022-09-06T23:23:58.584Z,17.82
2022-09-06T23:27:02.424Z,17.76
2022-09-06T23:30:06.325Z,17.73
2022-09-06T23:33:14.564Z,17.64
2022-09-06T23:36:16.511Z,17.63
2022-09-06T23:39:18.861Z,17.58
2022-09-06T23:42:22.540Z,17.51
2022-09-06T23:45:25.055Z,17.46
2022-09-06T23:48:28.002Z,17.42
2022-09-06T23:51:30.914Z,17.43
2022-09-06T23:54:33.539Z,17.47
2022-09-06T23:57:37.657Z,17.42
